Hazleton Airport

About
Name: Hazleton Airport
Identifier:  HZL/KHZL
Local Time:  23. Aug 01:21 EDT
Location
Flights per Day
0 flights
Distance: 191km (119mi)
Punctuality
0% (0 flights per day delayed)
Delay Average: 20 minutes
Current Weather
 18 C (Humidity: 88%)
  0kt (0km/h / 0mph) from 0°
  Scattered clouds at 3,500 feet (1,066 meter)
  Scattered clouds at 7,000 feet (2,133 meter)
  Overcast at 9,000 feet (2,743 meter)
  16km (10 mi.)
 METAR KHZL 230455Z AUTO 00000KT 10SM SCT035 SCT070 OVC090 18/16 A3004 RMK AO2

Current Flights

Departures
Number Departure To Airline
Arrivals
Number Arrival From Airline

Current Delays

Departures
N/A
Arrivals
N/A

Destinations

Top Destinations
Airport Flights
per week
Seats
per week
  Lancaster (LNS) 0 - 0 0
  Williamsport (IPT) 0 - 0 0
  Georgetown (GED) 0 - 0 0
  Ocean City (OCE) 0 - 0 0
  Louisa (LOW) 0 - 0 0
  Teterboro (TEB) 0 - 0 0
  Allentown (ABE) 0 - 0 0
  White Plains (HPN) 0 - 0 0
  Rochester (ROC) 0 - 0 0
  New London (GON) 0 - 0 0
  Gaithersburg (GAI) 0 - 0 0

Airlines & Planes

Top Airlines
Airline Flights
per Day
Seats
per Day
  National Airlines 0 -
Jet Charter Inc ( Franklin Lakes Nj ) 0 -
  Flybe Nordic 0 -
Travel Management Company 0 -
  Nolinor Aviation 0 -
Top Plane Types
Model Flights Seats
Hawker Beechcraft 400XP 0.1/day - 0
Cessna C172 0.1/day - 0
Cirrus SR22 0.1/day - 0
Piper PA28-181 0.0/day - 0